x

Buoy I01 - Eastern Maine Shelf (44034) Wave Buoy

4:04 - Fri 28th Nov 2014 All times are EST. -5 hours from GMT.

  • Sig Wave height 2.3ft
  • Peak Period 3s
  • Wind
    16mph, 20mph gusts
  • Sea Temp 50°f
  • Luft Temp 30°f
  • Sea Pressure 1015mb
  • Buoy I01 - Eastern Maine Shelf
  • Buoy I01 - Eastern Maine Shelf

More Historic Weather Station data

Upgrade to MSW Pro to gain access to the past 30 days of data for over 8000 Wavebouys and Weather Stations around the globe.

Join Pro

Comparision Forecast

View Surf forecast
   
Fr 11/28 4:04 2.5ft 3s 16 20 mph 1015mb 50f 30f
3:04 4.5ft 11s 13 18 mph 1014.7mb 50f 29f
2:04  -   -  13 18 mph 1014.2mb 50f 29f
1:04 5ft 11s 13 18 mph 1013.9mb 50f 29f
12:04 5ft 11s 13 18 mph 1014.2mb 50f 28f
11:04 6ft 11s 16 22 mph 1014.6mb 50f 28f
10:04 5.5ft 11s 18 25 mph 1015.2mb 50f 28f
9:04 5ft 11s 18 22 mph 1015.2mb 50f 28f
8:04 5ft 11s 16 22 mph 1015.2mb 50f 27f
7:04 7ft 11s 13 20 mph 1015.3mb 50f 27f
6:04 4ft 11s 13 20 mph 1015.2mb 50f 28f
5:04 5ft 11s 9 16 mph 1014.8mb 50f 28f
4:04 5ft 11s 16 18 mph 1014.7mb 50f 29f
3:04 5ft 11s 11 16 mph 1014.8mb 50f 29f
2:04 4.5ft 11s 13 16 mph 1015.1mb 50f 29f
1:04 4.5ft 11s 13 18 mph 1014.8mb 50f 30f
12:04 5ft 11s 11 16 mph 1014.7mb 50f 31f
Do 11/27 11:04 6ft 11s 13 18 mph 1015.6mb 50f 31f
10:04 7ft 11s 13 20 mph 1015.8mb 50f 31f
9:04 7.5ft 11s 16 20 mph 1015.6mb 50f 32f
8:04 7ft 11s 16 18 mph 1015.3mb 50f 33f
7:04 7.5ft 11s 20 25 mph 1014.5mb 50f 33f
6:04  -   -  18 25 mph 1014mb 50f 34f
5:04 6.5ft 11s 20 27 mph 1013.3mb 50f 35f
4:04 8ft 11s 20 25 mph 1012.7mb 50f 35f
3:04 8ft 11s 20 27 mph 1011.9mb 50f 36f
2:04 7ft 11s 20 25 mph 1010.9mb 50f 35f
1:04 9ft 11s 22 29 mph 1009.7mb 50f 34f
12:04 8ft 11s 25 31 mph 1008.6mb 50f 34f
11:04 8.5ft 11s 22 27 mph 1008.5mb 50f 34f
10:04 5ft 5s 25 31 mph 1007.1mb 50f 34f
9:04 8.5ft 6s 27 34 mph 1005.8mb 50f 35f
8:04 10.5ft 11s 31 40 mph 1003.4mb 50f 37f
7:04 11ft 8s 36 45 mph 1002mb 50f 35f
6:04 10.5ft 8s 36 43 mph 1000.5mb 50f 35f
5:04 13ft 8s 40 49 mph 998.6mb 50f 36f
4:04 12ft 8s 38 45 mph 998.8mb 50f 36f
3:04 12ft 8s 38 47 mph 997.7mb 50f 37f
2:04 11ft 8s 36 45 mph 998.2mb 51f 38f
1:04 10ft 8s 36 43 mph - 51f 39f
12:04 10ft 8s 38 45 mph 1000.9mb 51f 39f
Mi 11/26 11:04 10.5ft 6s 40 49 mph 1003.1mb 50f 39f
10:04 7.5ft 6s 34 43 mph - 50f 40f
9:04 8.5ft 6s 31 38 mph 1008.5mb 50f 39f
8:04 6.5ft 5s 31 36 mph 1010.9mb 50f 39f
7:04 5.5ft 5s 27 31 mph 1013.7mb 50f 38f
6:04 5.5ft 5s 29 34 mph 1014.5mb 50f 37f
5:04 4.5ft 8s 27 29 mph 1016.3mb 50f 38f
4:04  -   -  22 25 mph 1019.9mb 50f 37f
3:04 3ft 4s 20 25 mph 1019.8mb 50f 38f
2:04 4.5ft 11s 20 25 mph 1019.6mb 50f 38f
1:04 5.5ft 11s 18 22 mph 1019.8mb 50f 42f
12:04 5ft 8s 18 22 mph 1020.2mb 50f 42f
11:04 4.5ft 8s 18 22 mph 1020.4mb 50f 43f
10:04 5ft 11s 20 25 mph 1022mb 50f 44f
9:04 5ft 11s 13 18 mph 1022.3mb 50f 46f
8:04 5.5ft 11s 11 16 mph 1021.5mb 49f 46f
7:04 5ft 8s 11 13 mph 1020.8mb 50f 47f
6:04 5ft 11s 11 13 mph 1020.9mb 49f 48f
5:04 6ft 11s 11 16 mph 1020.3mb 50f 49f
4:04 6ft 11s 13 16 mph 1019.6mb 50f 49f
3:04 5.5ft 11s 9 11 mph 1018.7mb 50f 49f
2:04 6ft 11s  -  mph - 50f -
1:04 7ft 11s 13 18 mph 1017.5mb 50f 49f
12:04 6.5ft 11s 18 22 mph 1016.6mb 50f 50f
Di 11/25 11:04 7ft 11s 13 16 mph 1015.5mb 50f 50f
10:04 9ft 11s 11 13 mph 1014.5mb 50f 51f
9:04 8ft 11s 18 22 mph 1013.8mb 50f 52f
8:04 7.5ft 11s 16 20 mph 1012.6mb 50f 52f
7:04 9ft 11s 18 20 mph 1011.5mb 50f 53f
6:04  -   -  20 25 mph 1010.5mb 50f 54f
5:04 8ft 11s 16 20 mph 1009.5mb 50f 53f
4:04 8.5ft 11s 16 20 mph 1008.7mb 50f 53f
3:04 8ft 8s 18 22 mph 1008.9mb 50f 54f
2:04 8ft 11s 18 20 mph 1008mb 50f 53f
1:04 9ft 11s 18 20 mph 1007.8mb 50f 53f
12:04 8ft 11s 18 22 mph 1007.4mb 50f 53f
11:04 9ft 8s 16 20 mph 1007.6mb 50f 53f
10:04 10ft 11s 20 25 mph 1008mb 50f 53f
9:04 10ft 11s 22 27 mph 1007.2mb 50f 53f
8:04 10ft 8s 20 22 mph 1006.8mb 51f 54f
7:04 10ft 11s 20 25 mph 1005.9mb 51f 54f
6:04 11ft 11s 20 25 mph 1004.8mb 51f 54f
5:04 13ft 11s 20 25 mph 1004.5mb 50f 54f
4:04 12.5ft 11s 20 25 mph 1004.1mb 50f 53f
3:04 10.5ft 8s 18 22 mph 1004mb 50f 54f
2:04 12ft 8s 22 27 mph 1003mb 50f 54f
1:04  -   -  22 27 mph 1002.4mb 50f 55f
12:04 14ft 11s 25 31 mph 1002mb 50f 55f
Mo 11/24 11:04 14ft 8s 27 34 mph 1001.5mb 50f 55f